Time;durP1;ratioP1;P1;durP2;ratioP2;P2;SDS_P1;SDS_P2;PMS_P1;PMS_P2;Temp;Humidity;BMP_temperature;BMP_pressure;BME280_temperature;BME280_humidity;BME280_pressure;Samples;Min_cycle;Max_cycle;Signal;HPM_P1;HPM_P2
2022/09/24 00:01:31;;;;;;;2.88;2.58;;;19.70;99.90;;;;;;4146208;28;20287;-75
2022/09/24 00:03:34;;;;;;;3.45;3.00;;;19.70;99.90;;;;;;4146096;28;20221;-75
2022/09/24 00:05:38;;;;;;;3.35;2.70;;;19.70;99.90;;;;;;4145855;28;20300;-75
2022/09/24 00:07:41;;;;;;;3.30;2.92;;;19.70;99.90;;;;;;4145933;28;20225;-75
2022/09/24 00:09:43;;;;;;;3.22;2.80;;;19.70;99.90;;;;;;4145621;28;20228;-75
2022/09/24 00:11:46;;;;;;;3.25;2.92;;;19.70;99.90;;;;;;4145972;28;20263;-75
2022/09/24 00:13:50;;;;;;;4.10;3.00;;;19.70;99.90;;;;;;4146106;28;20248;-74
2022/09/24 00:15:53;;;;;;;4.40;3.13;;;19.60;99.90;;;;;;4145806;28;20276;-75
2022/09/24 00:17:56;;;;;;;3.15;2.70;;;19.70;99.90;;;;;;4145572;28;20737;-75
2022/09/24 00:19:59;;;;;;;3.45;2.83;;;19.70;99.90;;;;;;4145770;28;20220;-75
2022/09/24 00:22:01;;;;;;;3.38;2.92;;;19.70;99.90;;;;;;4145996;28;20627;-75
2022/09/24 00:24:07;;;;;;;3.42;3.00;;;19.70;99.90;;;;;;4145462;28;20557;-75
2022/09/24 00:28:32;;;;;;;5.15;3.58;;;19.60;99.90;;;;;;4146076;28;20209;-75
2022/09/24 00:30:34;;;;;;;3.85;3.00;;;19.60;99.90;;;;;;4145680;28;20263;-75
2022/09/24 00:32:38;;;;;;;3.05;2.75;;;19.60;99.90;;;;;;4145722;28;20260;-75
2022/09/24 00:34:40;;;;;;;4.15;3.40;;;19.70;99.90;;;;;;4145421;28;20217;-75
2022/09/24 00:36:43;;;;;;;4.07;2.90;;;19.60;99.90;;;;;;4145261;28;20651;-75
2022/09/24 00:38:49;;;;;;;3.60;3.00;;;19.60;99.90;;;;;;4138633;28;20213;-75
2022/09/24 00:40:52;;;;;;;3.45;3.13;;;19.60;99.90;;;;;;4146002;28;20336;-75
2022/09/24 00:42:54;;;;;;;3.50;3.20;;;19.60;99.90;;;;;;4145630;28;20213;-75
2022/09/24 00:44:56;;;;;;;3.65;2.95;;;19.60;99.90;;;;;;4144503;28;20220;-75
2022/09/24 00:46:59;;;;;;;4.50;2.95;;;19.60;99.90;;;;;;4137833;28;20247;-75
2022/09/24 00:49:05;;;;;;;4.05;3.03;;;19.60;99.90;;;;;;4144884;28;20217;-75
2022/09/24 00:51:09;;;;;;;4.65;3.47;;;19.60;99.90;;;;;;4145680;28;20320;-75
2022/09/24 00:53:14;;;;;;;4.25;3.20;;;19.60;99.90;;;;;;4145122;28;21584;-75
2022/09/24 00:55:18;;;;;;;3.63;3.13;;;19.60;99.90;;;;;;4145538;28;20213;-74
2022/09/24 00:57:21;;;;;;;3.35;3.05;;;19.60;99.90;;;;;;4147510;28;20233;-74
2022/09/24 00:59:24;;;;;;;3.95;3.50;;;19.60;99.90;;;;;;4147516;28;20747;-72
2022/09/24 01:01:27;;;;;;;3.50;3.17;;;19.60;99.90;;;;;;4147198;28;20271;-75
2022/09/24 01:03:32;;;;;;;4.10;3.45;;;19.60;99.90;;;;;;4146316;28;20275;-75
2022/09/24 01:05:37;;;;;;;4.30;3.15;;;19.60;99.90;;;;;;4146229;28;20657;-75
2022/09/24 01:07:39;;;;;;;3.33;3.03;;;19.60;99.90;;;;;;4145966;28;20275;-75
2022/09/24 01:09:42;;;;;;;3.60;3.10;;;19.60;99.90;;;;;;4145606;28;20668;-75
2022/09/24 01:11:55;;;;;;;3.83;3.38;;;19.60;99.90;;;;;;4145463;28;20221;-75
2022/09/24 01:14:25;;;;;;;3.10;2.80;;;19.60;99.90;;;;;;4147088;28;20220;-72
2022/09/24 01:16:34;;;;;;;3.25;2.95;;;19.60;99.90;;;;;;4136469;28;20222;-71
2022/09/24 01:18:42;;;;;;;4.57;3.10;;;19.60;99.90;;;;;;4144388;28;20263;-72
2022/09/24 01:21:15;;;;;;;3.40;3.10;;;19.60;99.90;;;;;;4146997;28;20216;-71
2022/09/24 01:23:53;;;;;;;4.32;3.40;;;19.60;99.90;;;;;;4147053;28;20220;-72
2022/09/24 01:26:07;;;;;;;4.18;3.38;;;19.60;99.90;;;;;;4130434;28;20295;-72
2022/09/24 01:28:30;;;;;;;3.67;3.38;;;19.60;99.90;;;;;;4146890;28;20277;-72
2022/09/24 01:30:39;;;;;;;3.67;3.33;;;19.50;99.90;;;;;;4146712;28;20221;-72
2022/09/24 01:32:46;;;;;;;4.10;3.35;;;19.60;99.90;;;;;;4146761;28;20267;-72
2022/09/24 01:34:53;;;;;;;3.33;2.83;;;19.60;99.90;;;;;;4145754;28;20213;-72
2022/09/24 01:36:58;;;;;;;4.15;3.67;;;19.60;99.90;;;;;;4146788;28;20241;-72
2022/09/24 01:39:03;;;;;;;3.85;3.45;;;19.60;99.90;;;;;;4141107;28;20272;-72
2022/09/24 01:41:07;;;;;;;4.72;3.22;;;19.60;99.90;;;;;;4147239;28;20212;-71
2022/09/24 01:43:12;;;;;;;3.63;3.15;;;19.50;99.90;;;;;;4149057;28;20225;-71
2022/09/24 01:45:16;;;;;;;3.72;3.40;;;19.50;99.90;;;;;;4140780;28;20557;-72
2022/09/24 01:47:26;;;;;;;4.22;3.20;;;19.60;99.90;;;;;;4149795;28;20244;-72
2022/09/24 01:49:29;;;;;;;3.90;3.50;;;19.50;99.90;;;;;;4137752;28;20292;-72
2022/09/24 01:51:35;;;;;;;4.13;3.47;;;19.60;99.90;;;;;;4132021;28;20214;-72
2022/09/24 01:53:43;;;;;;;4.60;3.80;;;19.50;99.90;;;;;;4133262;28;20222;-72
2022/09/24 01:55:50;;;;;;;3.58;3.28;;;19.60;99.90;;;;;;4133658;28;20229;-72
2022/09/24 01:57:58;;;;;;;3.97;3.50;;;19.60;99.90;;;;;;4133609;28;20296;-71
2022/09/24 02:00:06;;;;;;;3.92;3.50;;;19.60;99.90;;;;;;4133341;28;20221;-72
2022/09/24 02:02:14;;;;;;;3.55;3.25;;;19.50;99.90;;;;;;4133532;28;20268;-72
2022/09/24 02:04:20;;;;;;;4.28;3.88;;;19.50;99.90;;;;;;4133016;28;20217;-72
2022/09/24 02:06:28;;;;;;;4.03;3.35;;;19.50;99.90;;;;;;4133567;28;20264;-72
2022/09/24 02:08:34;;;;;;;3.75;3.38;;;19.60;99.90;;;;;;4133055;28;20637;-72
2022/09/24 02:10:45;;;;;;;3.97;3.60;;;19.50;99.90;;;;;;4133845;28;20243;-72
2022/09/24 02:12:51;;;;;;;4.05;3.40;;;19.50;99.90;;;;;;4126438;28;20221;-72
2022/09/24 02:14:57;;;;;;;3.70;3.40;;;19.60;99.90;;;;;;4133309;28;20214;-72
2022/09/24 02:17:03;;;;;;;4.55;3.90;;;19.50;99.90;;;;;;4132957;28;20209;-72
2022/09/24 02:19:10;;;;;;;4.40;3.60;;;19.50;99.90;;;;;;4133191;28;20214;-72
2022/09/24 02:21:16;;;;;;;3.72;3.10;;;19.50;99.90;;;;;;4133198;28;20222;-72
2022/09/24 02:23:20;;;;;;;4.10;3.53;;;19.50;99.90;;;;;;4132912;28;20252;-72
2022/09/24 02:25:29;;;;;;;4.05;3.65;;;19.50;99.90;;;;;;4132799;28;20268;-72
2022/09/24 02:27:31;;;;;;;3.83;3.50;;;19.50;99.90;;;;;;4132988;28;20631;-72
2022/09/24 02:29:34;;;;;;;4.07;3.60;;;19.50;99.90;;;;;;4132858;28;20730;-72
2022/09/24 02:31:40;;;;;;;4.47;3.80;;;19.50;99.90;;;;;;4133071;28;20226;-72
2022/09/24 02:36:07;;;;;;;5.10;3.70;;;19.50;99.90;;;;;;4133023;28;20602;-72
2022/09/24 02:38:18;;;;;;;3.88;3.38;;;19.50;99.90;;;;;;4132641;28;20648;-72
2022/09/24 02:40:21;;;;;;;4.55;3.63;;;19.50;99.90;;;;;;4122310;28;20268;-72
2022/09/24 02:42:23;;;;;;;3.70;3.30;;;19.50;99.90;;;;;;4132986;28;20217;-72
2022/09/24 02:44:25;;;;;;;4.45;3.42;;;19.50;99.90;;;;;;4132625;28;20218;-72
2022/09/24 02:46:28;;;;;;;3.97;3.30;;;19.50;99.90;;;;;;4132993;28;20221;-72
2022/09/24 02:48:30;;;;;;;5.00;4.05;;;19.50;99.90;;;;;;4132643;28;20292;-72
2022/09/24 02:50:32;;;;;;;4.10;3.60;;;19.50;99.90;;;;;;4145549;28;20660;-72
2022/09/24 02:52:35;;;;;;;4.18;3.50;;;19.50;99.90;;;;;;4149006;28;20703;-72
2022/09/24 02:54:38;;;;;;;5.35;3.92;;;19.50;99.90;;;;;;4147458;28;20275;-72
2022/09/24 02:56:41;;;;;;;3.40;3.10;;;19.50;99.90;;;;;;4148691;28;20221;-72
2022/09/24 02:58:43;;;;;;;5.05;4.13;;;19.50;99.90;;;;;;4148797;28;20237;-72
2022/09/24 03:00:46;;;;;;;4.28;3.78;;;19.50;99.90;;;;;;4148784;28;20962;-72
2022/09/24 03:02:48;;;;;;;4.28;3.65;;;19.50;99.90;;;;;;4148402;28;20339;-73
2022/09/24 03:04:51;;;;;;;3.95;3.55;;;19.50;99.90;;;;;;4148643;28;20768;-72
2022/09/24 03:06:53;;;;;;;3.65;3.35;;;19.50;99.90;;;;;;4148848;28;20213;-72
2022/09/24 03:08:55;;;;;;;4.10;3.28;;;19.50;99.90;;;;;;4148475;28;20221;-72
2022/09/24 03:10:59;;;;;;;4.70;3.92;;;19.50;99.90;;;;;;4148146;28;20232;-71
2022/09/24 03:13:01;;;;;;;4.50;3.75;;;19.50;99.90;;;;;;4148478;28;20275;-72
2022/09/24 03:15:05;;;;;;;3.92;3.53;;;19.50;99.90;;;;;;4148872;28;20263;-72
2022/09/24 03:17:07;;;;;;;4.35;3.55;;;19.50;99.90;;;;;;4148007;28;20217;-71
2022/09/24 03:19:09;;;;;;;4.40;3.70;;;19.50;99.90;;;;;;4148230;28;20279;-71
2022/09/24 03:21:13;;;;;;;4.15;3.45;;;19.50;99.90;;;;;;4148065;28;20271;-72
2022/09/24 03:23:16;;;;;;;3.90;3.47;;;19.50;99.90;;;;;;4147947;28;20217;-71
2022/09/24 03:25:18;;;;;;;4.50;3.92;;;19.50;99.90;;;;;;4148436;28;20225;-72
2022/09/24 03:27:22;;;;;;;4.13;3.38;;;19.50;99.90;;;;;;4148091;28;20217;-72
2022/09/24 03:31:40;;;;;;;5.35;3.53;;;19.50;99.90;;;;;;4147073;28;20666;-71
2022/09/24 03:33:44;;;;;;;3.78;3.20;;;19.50;99.90;;;;;;4147846;28;20259;-73
2022/09/24 03:35:46;;;;;;;4.00;3.60;;;19.50;99.90;;;;;;4148058;28;20217;-71
2022/09/24 03:37:49;;;;;;;3.78;3.05;;;19.50;99.90;;;;;;4147833;28;20248;-72
2022/09/24 03:39:51;;;;;;;5.10;3.88;;;19.50;99.90;;;;;;4148098;28;20275;-73
2022/09/24 03:41:53;;;;;;;5.07;4.18;;;19.50;99.90;;;;;;4147596;28;20225;-71
2022/09/24 03:43:57;;;;;;;4.40;3.70;;;19.50;99.90;;;;;;4148179;28;20221;-72
2022/09/24 03:46:00;;;;;;;3.92;3.50;;;19.50;99.90;;;;;;4147664;28;20275;-71
2022/09/24 03:48:04;;;;;;;4.75;3.75;;;19.50;99.90;;;;;;4147442;28;20291;-72
2022/09/24 03:50:10;;;;;;;4.13;3.47;;;19.50;99.90;;;;;;4147545;28;20279;-72
2022/09/24 03:52:12;;;;;;;3.75;3.35;;;19.50;99.90;;;;;;4148042;28;20263;-72
2022/09/24 03:54:15;;;;;;;6.07;3.88;;;19.50;99.90;;;;;;4147826;28;20225;-72
2022/09/24 03:56:17;;;;;;;3.90;3.50;;;19.50;99.90;;;;;;4147959;28;20615;-72
2022/09/24 03:58:19;;;;;;;4.15;3.45;;;19.50;99.90;;;;;;4147789;28;20233;-72
2022/09/24 04:00:23;;;;;;;3.80;3.40;;;19.50;99.90;;;;;;4147717;28;20670;-72
2022/09/24 04:02:26;;;;;;;4.13;3.58;;;19.40;99.90;;;;;;4147835;28;20559;-72
2022/09/24 04:04:28;;;;;;;3.70;3.33;;;19.40;99.90;;;;;;4147541;28;20670;-72
2022/09/24 04:06:30;;;;;;;4.25;3.45;;;19.40;99.90;;;;;;4147421;28;20221;-72
2022/09/24 04:08:33;;;;;;;4.13;3.60;;;19.40;99.90;;;;;;4147408;28;20256;-72
2022/09/24 04:10:35;;;;;;;3.92;3.55;;;19.40;99.90;;;;;;4147819;28;20217;-71
2022/09/24 04:12:38;;;;;;;4.47;3.58;;;19.50;99.90;;;;;;4147402;28;20221;-72
2022/09/24 04:14:40;;;;;;;3.92;3.53;;;19.40;99.90;;;;;;4147402;28;20271;-72
2022/09/24 04:16:44;;;;;;;5.00;3.85;;;19.50;99.90;;;;;;4147260;28;20307;-72
2022/09/24 04:18:46;;;;;;;4.20;3.42;;;19.40;99.90;;;;;;4147833;28;20241;-72
2022/09/24 04:20:49;;;;;;;4.53;3.83;;;19.40;99.90;;;;;;4147263;28;20352;-72
2022/09/24 04:22:53;;;;;;;4.45;3.35;;;19.40;99.90;;;;;;4147505;28;20275;-71
2022/09/24 04:24:56;;;;;;;4.40;3.63;;;19.40;99.90;;;;;;4147636;28;20209;-72
2022/09/24 04:26:59;;;;;;;4.07;3.67;;;19.40;99.90;;;;;;4139194;28;20217;-71
2022/09/24 04:29:01;;;;;;;4.97;3.90;;;19.40;99.90;;;;;;4134867;28;20636;-71
2022/09/24 04:31:04;;;;;;;3.75;3.35;;;19.40;99.90;;;;;;4147195;28;20220;-71
2022/09/24 04:33:08;;;;;;;3.63;3.25;;;19.40;99.90;;;;;;4147264;28;20217;-71
2022/09/24 04:35:11;;;;;;;5.10;3.85;;;19.40;99.90;;;;;;4148190;28;20213;-72
2022/09/24 04:37:13;;;;;;;4.25;3.70;;;19.40;99.90;;;;;;4141808;28;20213;-71
2022/09/24 04:39:15;;;;;;;4.07;3.60;;;19.40;99.90;;;;;;4147631;28;20237;-71
2022/09/24 04:41:18;;;;;;;4.57;3.92;;;19.40;99.90;;;;;;4147410;28;20564;-71
2022/09/24 04:43:20;;;;;;;5.32;4.07;;;19.40;99.90;;;;;;4147381;28;20597;-71
2022/09/24 04:45:23;;;;;;;4.70;3.40;;;19.40;99.90;;;;;;4147279;28;20225;-73
2022/09/24 04:47:26;;;;;;;4.20;3.80;;;19.40;99.90;;;;;;4143453;28;20681;-72
2022/09/24 04:49:29;;;;;;;5.30;3.80;;;19.40;99.90;;;;;;4146992;28;20237;-71
2022/09/24 04:51:34;;;;;;;4.55;4.10;;;19.40;99.90;;;;;;4146730;28;20283;-72
2022/09/24 04:53:37;;;;;;;4.50;3.70;;;19.40;99.90;;;;;;4147282;28;20221;-72
2022/09/24 04:55:40;;;;;;;4.43;4.00;;;19.40;99.90;;;;;;4147664;28;20217;-72
2022/09/24 04:57:43;;;;;;;4.88;3.22;;;19.40;99.90;;;;;;4147522;28;20220;-71
2022/09/24 04:59:46;;;;;;;4.28;3.65;;;19.40;99.90;;;;;;4147089;28;20318;-72
2022/09/24 05:01:48;;;;;;;4.22;3.53;;;19.40;99.90;;;;;;4146938;28;20294;-71
2022/09/24 05:03:51;;;;;;;4.10;3.53;;;19.40;99.90;;;;;;4146987;28;20275;-72
2022/09/24 05:05:55;;;;;;;4.00;3.60;;;19.40;99.90;;;;;;4146724;28;20229;-72
2022/09/24 05:07:58;;;;;;;3.58;3.28;;;19.40;99.90;;;;;;4147067;28;20626;-71
2022/09/24 05:10:00;;;;;;;5.65;4.07;;;19.40;99.90;;;;;;4146927;28;20259;-72
2022/09/24 05:12:03;;;;;;;4.22;3.80;;;19.40;99.90;;;;;;4146418;28;20268;-72
2022/09/24 05:14:07;;;;;;;3.75;3.40;;;19.40;99.90;;;;;;4146839;28;20225;-72
2022/09/24 05:16:09;;;;;;;4.03;3.63;;;19.40;99.90;;;;;;4146894;28;20213;-72
2022/09/24 05:18:11;;;;;;;4.28;3.47;;;19.40;99.90;;;;;;4148741;28;20217;-72
2022/09/24 05:20:15;;;;;;;3.85;3.50;;;19.40;99.90;;;;;;4150118;28;20237;-72
2022/09/24 05:22:19;;;;;;;4.40;3.80;;;19.40;99.90;;;;;;4149542;28;20218;-72
2022/09/24 05:24:22;;;;;;;4.50;3.50;;;19.40;99.90;;;;;;4149867;28;20217;-72
2022/09/24 05:28:44;;;;;;;4.47;4.03;;;19.40;99.90;;;;;;4150346;28;20197;-72
2022/09/24 05:30:46;;;;;;;3.50;3.20;;;19.40;99.90;;;;;;4149569;28;20251;-72
2022/09/24 05:32:51;;;;;;;4.28;3.78;;;19.40;99.90;;;;;;4149816;28;20616;-72
2022/09/24 05:34:53;;;;;;;4.43;3.80;;;19.40;99.90;;;;;;4149555;28;20248;-72
2022/09/24 05:36:55;;;;;;;3.88;3.50;;;19.40;99.90;;;;;;4149415;28;20323;-72
2022/09/24 05:38:59;;;;;;;4.45;3.85;;;19.40;99.90;;;;;;4149675;28;20233;-72
2022/09/24 05:41:01;;;;;;;4.10;3.70;;;19.40;99.90;;;;;;4149843;28;20688;-72
2022/09/24 05:43:04;;;;;;;4.07;3.55;;;19.40;99.90;;;;;;4149831;28;20225;-72
2022/09/24 05:45:07;;;;;;;4.07;3.65;;;19.40;99.90;;;;;;4149492;28;20275;-72
2022/09/24 05:47:09;;;;;;;3.60;3.22;;;19.40;99.90;;;;;;4149616;28;20221;-72
2022/09/24 05:49:12;;;;;;;5.10;3.90;;;19.40;99.90;;;;;;4149220;28;20221;-72
2022/09/24 05:51:14;;;;;;;4.30;3.88;;;19.40;99.90;;;;;;4149604;28;20268;-72
2022/09/24 05:53:17;;;;;;;4.40;3.33;;;19.40;99.90;;;;;;4149580;28;20630;-72
2022/09/24 05:55:21;;;;;;;4.90;3.70;;;19.40;99.90;;;;;;4149478;28;20708;-72
2022/09/24 05:57:23;;;;;;;3.70;3.30;;;19.40;99.90;;;;;;4149215;28;20220;-72
2022/09/24 05:59:25;;;;;;;3.33;3.03;;;19.40;99.90;;;;;;4149115;28;20642;-72
2022/09/24 06:01:29;;;;;;;4.45;3.53;;;19.40;99.90;;;;;;4149385;28;20715;-72
2022/09/24 06:03:31;;;;;;;3.90;3.30;;;19.40;99.90;;;;;;4148658;28;20311;-72
2022/09/24 06:05:34;;;;;;;4.35;3.63;;;19.40;99.90;;;;;;4149205;28;20349;-72
2022/09/24 06:07:36;;;;;;;4.10;3.70;;;19.40;99.90;;;;;;4148644;28;20221;-72
2022/09/24 06:09:38;;;;;;;4.22;3.63;;;19.40;99.90;;;;;;4149447;28;20624;-72
2022/09/24 06:11:42;;;;;;;5.18;3.97;;;19.30;99.90;;;;;;4140962;28;20661;-72
2022/09/24 06:13:45;;;;;;;4.70;3.45;;;19.40;99.90;;;;;;4149298;28;20623;-72
2022/09/24 06:15:47;;;;;;;4.07;3.67;;;19.40;99.90;;;;;;4148662;28;20221;-72
2022/09/24 06:17:52;;;;;;;4.32;3.92;;;19.40;99.90;;;;;;4148323;28;20259;-72
2022/09/24 06:19:56;;;;;;;4.18;3.78;;;19.40;99.90;;;;;;4148887;28;20241;-72
2022/09/24 06:21:59;;;;;;;3.95;3.55;;;19.40;99.90;;;;;;4148571;28;20263;-72
2022/09/24 06:24:01;;;;;;;4.20;3.72;;;19.40;99.90;;;;;;4148365;28;20299;-72
2022/09/24 06:26:06;;;;;;;4.57;3.90;;;19.40;99.90;;;;;;4148956;28;20684;-72
2022/09/24 06:28:10;;;;;;;4.10;3.70;;;19.40;99.90;;;;;;4148583;28;20272;-72
2022/09/24 06:30:12;;;;;;;3.85;3.50;;;19.40;99.90;;;;;;4148831;28;20550;-72
2022/09/24 06:32:14;;;;;;;4.53;3.90;;;19.30;99.90;;;;;;4148370;28;20225;-72
2022/09/24 06:34:17;;;;;;;3.90;3.50;;;19.30;99.90;;;;;;4148963;28;20213;-72
2022/09/24 06:36:19;;;;;;;4.60;3.80;;;19.40;99.90;;;;;;4148983;28;20213;-72
2022/09/24 06:38:21;;;;;;;4.88;4.22;;;19.30;99.90;;;;;;4148625;28;20271;-72
2022/09/24 06:40:24;;;;;;;4.15;3.65;;;19.40;99.90;;;;;;4148755;28;20237;-72
2022/09/24 06:42:27;;;;;;;4.63;3.88;;;19.30;99.90;;;;;;4148568;28;20619;-72
2022/09/24 06:44:31;;;;;;;4.25;3.80;;;19.30;99.90;;;;;;4148562;28;20728;-72
2022/09/24 06:46:33;;;;;;;3.80;3.40;;;19.30;99.90;;;;;;4148621;28;20271;-72
2022/09/24 06:48:37;;;;;;;4.35;3.90;;;19.30;99.90;;;;;;4148701;28;20263;-72
2022/09/24 06:50:40;;;;;;;4.50;3.75;;;19.30;99.90;;;;;;4148108;28;20303;-71
2022/09/24 06:52:43;;;;;;;3.95;3.55;;;19.40;99.90;;;;;;4148767;28;20225;-72
2022/09/24 06:54:45;;;;;;;4.15;3.72;;;19.30;99.90;;;;;;4148472;28;20670;-72
2022/09/24 06:56:47;;;;;;;4.30;3.80;;;19.40;99.90;;;;;;4148372;28;20271;-72
2022/09/24 06:58:49;;;;;;;5.05;3.55;;;19.30;99.90;;;;;;4148513;28;20213;-72
2022/09/24 07:00:57;;;;;;;4.00;3.60;;;19.30;99.90;;;;;;4148737;28;20248;-71
2022/09/24 07:02:59;;;;;;;4.13;3.72;;;19.40;99.90;;;;;;4143277;28;20279;-72
2022/09/24 07:05:02;;;;;;;4.75;3.85;;;19.30;99.90;;;;;;4148664;28;20217;-72
2022/09/24 07:09:24;;;;;;;4.80;3.95;;;19.30;99.90;;;;;;4148689;28;20212;-72
2022/09/24 07:11:27;;;;;;;3.88;3.50;;;19.40;99.90;;;;;;4148527;28;20275;-72
2022/09/24 07:13:30;;;;;;;4.45;3.60;;;19.40;99.90;;;;;;4148449;28;20225;-72
2022/09/24 07:15:33;;;;;;;4.28;3.88;;;19.40;99.90;;;;;;4148625;28;20217;-72
2022/09/24 07:17:37;;;;;;;3.83;3.42;;;19.30;99.90;;;;;;4147954;28;20610;-72
2022/09/24 07:19:39;;;;;;;3.78;3.40;;;19.30;99.90;;;;;;4148069;28;20239;-72
2022/09/24 07:21:41;;;;;;;4.43;3.80;;;19.40;99.90;;;;;;4142760;28;20292;-72
2022/09/24 07:23:43;;;;;;;4.38;3.53;;;19.40;99.90;;;;;;4148114;28;20279;-72
2022/09/24 07:25:46;;;;;;;4.93;3.80;;;19.40;99.90;;;;;;4148084;28;20291;-72
2022/09/24 07:27:48;;;;;;;4.38;3.97;;;19.30;99.90;;;;;;4148401;28;20718;-72
2022/09/24 07:29:50;;;;;;;3.97;3.55;;;19.40;99.90;;;;;;4147976;28;20641;-72
2022/09/24 07:31:53;;;;;;;4.03;3.63;;;19.40;99.90;;;;;;4148079;28;20583;-72
2022/09/24 07:33:56;;;;;;;4.18;3.78;;;19.40;99.90;;;;;;4147767;28;20213;-72
2022/09/24 07:35:58;;;;;;;4.95;4.20;;;19.40;99.90;;;;;;4147425;28;20225;-72
2022/09/24 07:38:03;;;;;;;5.82;3.95;;;19.40;99.90;;;;;;4148138;28;20224;-72
2022/09/24 07:40:06;;;;;;;4.07;3.67;;;19.40;99.90;;;;;;4147228;28;20287;-72
2022/09/24 07:42:08;;;;;;;3.97;3.55;;;19.40;99.90;;;;;;4147823;28;20214;-72
2022/09/24 07:44:10;;;;;;;5.13;4.03;;;19.40;99.90;;;;;;4147630;28;20271;-72
2022/09/24 07:46:13;;;;;;;4.78;3.88;;;19.40;99.90;;;;;;4148055;28;20280;-72
2022/09/24 07:48:15;;;;;;;4.22;3.83;;;19.40;99.90;;;;;;4147378;28;20275;-72
2022/09/24 07:50:19;;;;;;;3.63;3.33;;;19.40;99.90;;;;;;4146691;28;20229;-72
2022/09/24 07:52:21;;;;;;;4.28;3.70;;;19.40;99.90;;;;;;4147505;28;20264;-72
2022/09/24 07:54:23;;;;;;;4.13;3.70;;;19.40;99.90;;;;;;4147992;28;20646;-72
2022/09/24 07:56:26;;;;;;;4.05;3.70;;;19.40;99.90;;;;;;4147816;28;20217;-72
2022/09/24 07:58:28;;;;;;;4.00;3.60;;;19.40;99.90;;;;;;4147342;28;20287;-72
2022/09/24 08:00:30;;;;;;;4.18;3.75;;;19.40;99.90;;;;;;4147687;28;20237;-72
2022/09/24 08:02:32;;;;;;;4.40;3.95;;;19.40;99.90;;;;;;4147695;28;20251;-72
2022/09/24 08:04:35;;;;;;;3.85;3.45;;;19.40;99.90;;;;;;4147362;28;20612;-72
2022/09/24 08:06:38;;;;;;;4.53;3.85;;;19.40;99.90;;;;;;4147619;28;20213;-72
2022/09/24 08:08:42;;;;;;;3.75;3.33;;;19.40;99.90;;;;;;4147397;28;20263;-72
2022/09/24 08:10:44;;;;;;;3.95;3.55;;;19.40;99.90;;;;;;4147512;28;20259;-72
2022/09/24 08:12:46;;;;;;;3.75;3.45;;;19.40;99.90;;;;;;4140051;28;20209;-72
2022/09/24 08:14:50;;;;;;;4.20;3.80;;;19.40;99.90;;;;;;4146930;28;20217;-72
2022/09/24 08:16:52;;;;;;;4.78;3.75;;;19.40;99.90;;;;;;4147161;28;20568;-72
2022/09/24 08:18:55;;;;;;;3.95;3.58;;;19.40;99.90;;;;;;4147247;28;20216;-72
2022/09/24 08:20:58;;;;;;;3.90;3.50;;;19.40;99.90;;;;;;4147452;28;20236;-72
2022/09/24 08:23:03;;;;;;;3.70;3.40;;;19.40;99.90;;;;;;4147180;28;20650;-71
2022/09/24 08:25:06;;;;;;;3.55;3.20;;;19.40;99.90;;;;;;4147342;28;20213;-72
2022/09/24 08:27:08;;;;;;;4.07;3.63;;;19.40;99.90;;;;;;4147025;28;20217;-72
2022/09/24 08:29:11;;;;;;;3.95;3.50;;;19.40;99.90;;;;;;4147398;28;20286;-71
2022/09/24 08:31:15;;;;;;;4.75;3.70;;;19.40;99.90;;;;;;4147102;28;20213;-72
2022/09/24 08:33:17;;;;;;;4.10;3.60;;;19.40;99.90;;;;;;4146795;28;20629;-72
2022/09/24 08:35:20;;;;;;;3.47;3.13;;;19.40;99.90;;;;;;4147109;28;20221;-72
2022/09/24 08:37:22;;;;;;;3.83;3.42;;;19.40;99.90;;;;;;4147275;28;20669;-72
2022/09/24 08:39:26;;;;;;;3.83;3.42;;;19.40;99.90;;;;;;4146779;28;20278;-72
2022/09/24 08:41:44;;;;;;;4.20;3.28;;;19.40;99.90;;;;;;4145862;28;20240;-75
2022/09/24 08:43:53;;;;;;;4.85;3.60;;;19.40;99.90;;;;;;4134191;28;21115;-75
2022/09/24 08:48:25;;;;;;;4.50;3.90;;;19.40;99.90;;;;;;4145811;28;20654;-75
2022/09/24 08:50:31;;;;;;;4.20;3.63;;;19.40;99.90;;;;;;4144987;28;20769;-74
2022/09/24 08:52:59;;;;;;;4.00;3.50;;;19.40;99.90;;;;;;4146462;28;20267;-75
2022/09/24 08:55:07;;;;;;;4.95;3.72;;;19.40;99.90;;;;;;4143537;28;20283;-75
2022/09/24 08:57:14;;;;;;;3.90;3.55;;;19.40;99.90;;;;;;4148738;28;20275;-75
2022/09/24 08:59:26;;;;;;;4.10;3.70;;;19.40;99.90;;;;;;4148651;28;20220;-75
2022/09/24 09:01:35;;;;;;;3.90;3.50;;;19.40;99.90;;;;;;4148723;28;20236;-75
2022/09/24 09:03:45;;;;;;;4.45;3.78;;;19.40;99.90;;;;;;4148951;28;20216;-75
2022/09/24 09:05:55;;;;;;;4.53;3.70;;;19.40;99.90;;;;;;4148752;28;20225;-75
2022/09/24 09:08:02;;;;;;;4.13;3.72;;;19.40;99.90;;;;;;4135705;28;20287;-74
2022/09/24 09:10:11;;;;;;;4.78;3.47;;;19.50;99.90;;;;;;4148762;28;20621;-75
2022/09/24 09:12:17;;;;;;;3.85;3.50;;;19.40;99.90;;;;;;4148670;28;20205;-75
2022/09/24 09:14:24;;;;;;;3.83;3.42;;;19.40;99.90;;;;;;4148608;28;20213;-75
2022/09/24 09:16:30;;;;;;;3.97;3.47;;;19.40;99.90;;;;;;4147997;28;20224;-75
2022/09/24 09:18:37;;;;;;;4.25;3.72;;;19.40;99.90;;;;;;4148584;28;20597;-75
2022/09/24 09:20:42;;;;;;;4.30;3.90;;;19.40;99.90;;;;;;4147713;28;20221;-75
2022/09/24 09:22:47;;;;;;;4.90;3.88;;;19.40;99.90;;;;;;4147943;28;20267;-75
2022/09/24 09:24:51;;;;;;;4.00;3.63;;;19.40;99.90;;;;;;4148353;28;20213;-75
2022/09/24 09:26:56;;;;;;;4.07;3.67;;;19.40;99.90;;;;;;4148254;28;20217;-75
2022/09/24 09:29:01;;;;;;;4.60;3.72;;;19.40;99.90;;;;;;4147754;28;20250;-75
2022/09/24 09:31:11;;;;;;;4.25;3.85;;;19.40;99.90;;;;;;4148197;28;20217;-75
2022/09/24 09:33:27;;;;;;;3.90;3.50;;;19.40;99.90;;;;;;4148042;28;20216;-75
2022/09/24 09:35:38;;;;;;;4.07;3.55;;;19.40;99.90;;;;;;4147987;28;20217;-75
2022/09/24 09:37:48;;;;;;;3.80;3.50;;;19.40;99.90;;;;;;4138276;28;20228;-75
2022/09/24 09:39:59;;;;;;;5.40;3.30;;;19.50;99.90;;;;;;4147937;28;20267;-75
2022/09/24 09:42:17;;;;;;;4.40;3.60;;;19.50;99.90;;;;;;4135763;28;20314;-75
2022/09/24 09:44:24;;;;;;;3.95;3.50;;;19.50;99.90;;;;;;4148219;28;20220;-75
2022/09/24 09:46:33;;;;;;;4.10;3.63;;;19.50;99.90;;;;;;4148022;28;20272;-75
2022/09/24 09:48:44;;;;;;;4.38;3.55;;;19.50;99.90;;;;;;4147945;28;20271;-75
2022/09/24 09:50:49;;;;;;;4.10;3.40;;;19.50;99.90;;;;;;4147499;28;20291;-75
2022/09/24 09:52:52;;;;;;;3.55;3.25;;;19.50;99.90;;;;;;4147664;28;20213;-75
2022/09/24 09:54:54;;;;;;;4.10;3.70;;;19.50;99.90;;;;;;4141479;28;20640;-75
2022/09/24 09:56:57;;;;;;;3.90;3.50;;;19.50;99.90;;;;;;4147756;28;20225;-75
2022/09/24 09:59:06;;;;;;;4.00;3.42;;;19.50;99.90;;;;;;4148066;28;20654;-75
2022/09/24 10:01:11;;;;;;;4.13;3.72;;;19.50;99.90;;;;;;4147554;28;20691;-75
2022/09/24 10:03:26;;;;;;;4.32;3.88;;;19.50;99.90;;;;;;4147240;28;20279;-75
2022/09/24 10:05:29;;;;;;;4.10;3.70;;;19.50;99.90;;;;;;4147790;28;20624;-75
2022/09/24 10:07:32;;;;;;;4.25;3.47;;;19.50;99.90;;;;;;4147255;28;20217;-75
2022/09/24 10:09:35;;;;;;;3.83;3.42;;;19.50;99.90;;;;;;4147514;28;20236;-75
2022/09/24 10:11:37;;;;;;;4.55;3.58;;;19.50;99.90;;;;;;4147777;28;20221;-75
2022/09/24 10:13:39;;;;;;;4.45;3.70;;;19.50;99.90;;;;;;4147638;28;20229;-75
2022/09/24 10:15:51;;;;;;;5.00;3.63;;;19.50;99.90;;;;;;4147553;28;20279;-75
2022/09/24 10:17:54;;;;;;;4.35;3.95;;;19.50;99.90;;;;;;4147534;28;20220;-75
2022/09/24 10:19:57;;;;;;;4.70;3.75;;;19.50;99.90;;;;;;4147442;28;20628;-75
2022/09/24 10:22:09;;;;;;;4.05;3.72;;;19.50;99.90;;;;;;4147253;28;20644;-75
2022/09/24 10:24:17;;;;;;;4.43;3.63;;;19.50;99.90;;;;;;4135448;28;20979;-75
2022/09/24 10:26:19;;;;;;;4.45;3.65;;;19.50;99.90;;;;;;4147288;28;20660;-75
2022/09/24 10:30:54;;;;;;;4.45;3.42;;;19.50;99.90;;;;;;4139672;28;20201;-75
2022/09/24 10:32:58;;;;;;;4.38;3.65;;;19.50;99.90;;;;;;4147364;28;20273;-75
2022/09/24 10:35:02;;;;;;;3.95;3.40;;;19.50;99.90;;;;;;4140034;28;20269;-75
2022/09/24 10:37:14;;;;;;;3.97;3.38;;;19.50;99.90;;;;;;4147517;28;20340;-75
2022/09/24 10:39:16;;;;;;;4.68;3.88;;;19.50;99.90;;;;;;4147436;28;20220;-75
2022/09/24 10:41:26;;;;;;;4.90;3.53;;;19.50;99.90;;;;;;4147135;28;20232;-75
2022/09/24 10:43:30;;;;;;;4.18;3.53;;;19.40;99.90;;;;;;4146862;28;20224;-75
2022/09/24 10:45:51;;;;;;;4.13;3.72;;;19.50;99.90;;;;;;4147504;28;20244;-75
2022/09/24 10:48:07;;;;;;;3.80;3.50;;;19.50;99.90;;;;;;4146944;28;20276;-75
2022/09/24 10:50:30;;;;;;;4.00;3.60;;;19.50;99.90;;;;;;4134749;28;20233;-75
2022/09/24 10:52:46;;;;;;;4.43;4.03;;;19.50;99.90;;;;;;4142026;28;20209;-75
2022/09/24 10:54:56;;;;;;;3.80;3.38;;;19.50;99.90;;;;;;4146792;28;20217;-75
2022/09/24 10:57:03;;;;;;;4.22;3.83;;;19.50;99.90;;;;;;4146903;28;20236;-75
2022/09/24 10:59:43;;;;;;;3.58;3.28;;;19.50;99.90;;;;;;4146663;28;20212;-75
2022/09/24 11:01:58;;;;;;;4.00;3.60;;;19.50;99.90;;;;;;4080929;29;20231;-75
2022/09/24 11:04:33;;;;;;;3.58;3.28;;;19.50;99.90;;;;;;4080987;29;20739;-75
2022/09/24 11:06:50;;;;;;;4.00;3.45;;;19.50;99.90;;;;;;4072468;29;20259;-75
2022/09/24 11:09:06;;;;;;;4.18;3.70;;;19.50;99.90;;;;;;4081241;29;20720;-75